createdAt,value
2022-10-04T00:00:39.200Z,1005.14
2022-10-04T00:01:39.357Z,1005.13
2022-10-04T00:02:39.191Z,1005.18
2022-10-04T00:03:39.149Z,1005.14
2022-10-04T00:04:39.160Z,1005.16
2022-10-04T00:05:39.127Z,1005.17
2022-10-04T00:06:39.143Z,1005.22
2022-10-04T00:07:39.104Z,1005.27
2022-10-04T00:08:39.098Z,1005.25
2022-10-04T00:09:39.081Z,1005.22
2022-10-04T00:10:39.073Z,1005.28
2022-10-04T00:11:39.192Z,1005.27
2022-10-04T00:12:39.049Z,1005.34
2022-10-04T00:13:39.060Z,1005.36
2022-10-04T00:14:39.026Z,1005.37
2022-10-04T00:15:39.011Z,1005.37
2022-10-04T00:16:39.214Z,1005.36
2022-10-04T00:17:38.990Z,1005.36
2022-10-04T00:18:38.979Z,1005.33
2022-10-04T00:19:38.989Z,1005.29
2022-10-04T00:20:38.957Z,1005.31
2022-10-04T00:21:39.067Z,1005.36
2022-10-04T00:22:38.960Z,1005.39
2022-10-04T00:23:38.923Z,1005.41
2022-10-04T00:24:38.918Z,1005.50
2022-10-04T00:25:38.899Z,1005.46
2022-10-04T00:26:38.904Z,1005.47
2022-10-04T00:27:39.081Z,1005.47
2022-10-04T00:28:38.871Z,1005.47
2022-10-04T00:29:38.854Z,1005.43
2022-10-04T00:30:38.873Z,1005.39
2022-10-04T00:31:38.938Z,1005.42
2022-10-04T00:32:39.119Z,1005.39
2022-10-04T00:33:38.810Z,1005.39
2022-10-04T00:34:38.802Z,1005.38
2022-10-04T00:35:38.784Z,1005.32
2022-10-04T00:36:38.775Z,1005.36
2022-10-04T00:37:38.786Z,1005.35
2022-10-04T00:38:38.753Z,1005.38
2022-10-04T00:39:38.742Z,1005.33
2022-10-04T00:40:38.749Z,1005.38
2022-10-04T00:41:38.720Z,1005.34
2022-10-04T00:42:38.706Z,1005.32
2022-10-04T00:43:38.716Z,1005.33
2022-10-04T00:44:38.683Z,1005.31
2022-10-04T00:45:38.676Z,1005.28
2022-10-04T00:46:38.825Z,1005.27
2022-10-04T00:47:38.668Z,1005.25
2022-10-04T00:48:38.661Z,1005.22
2022-10-04T00:49:38.648Z,1005.18
2022-10-04T00:50:38.638Z,1005.17
2022-10-04T00:51:38.626Z,1005.16
2022-10-04T00:52:38.593Z,1005.10
2022-10-04T00:53:38.601Z,1005.06
2022-10-04T00:54:38.570Z,1005.09
2022-10-04T00:55:38.579Z,1005.10
2022-10-04T00:56:38.551Z,1005.04
2022-10-04T00:57:38.536Z,1005.04
2022-10-04T00:58:38.533Z,1005.02
2022-10-04T00:59:38.516Z,1005.02
2022-10-04T01:00:38.663Z,1005.02
2022-10-04T01:01:38.517Z,1005.02
2022-10-04T01:02:38.578Z,1005.04
2022-10-04T01:03:38.465Z,1005.02
2022-10-04T01:04:38.606Z,1005.01
2022-10-04T01:05:38.468Z,1004.92
2022-10-04T01:06:38.433Z,1004.87
2022-10-04T01:07:38.443Z,1004.84
2022-10-04T01:08:38.414Z,1004.86
2022-10-04T01:09:38.397Z,1004.84
2022-10-04T01:10:38.393Z,1004.82
2022-10-04T01:11:38.389Z,1004.85
2022-10-04T01:12:38.389Z,1004.91
2022-10-04T01:13:38.351Z,1004.96
2022-10-04T01:14:38.343Z,1004.97
2022-10-04T01:15:38.365Z,1004.96
2022-10-04T01:16:38.319Z,1004.99
2022-10-04T01:17:38.307Z,1005.00
2022-10-04T01:18:38.316Z,1004.98
2022-10-04T01:19:38.283Z,1005.01
2022-10-04T01:20:38.386Z,1005.00
2022-10-04T01:21:38.263Z,1004.96
2022-10-04T01:22:38.275Z,1004.92
2022-10-04T01:23:38.242Z,1004.95
2022-10-04T01:24:38.232Z,1004.94
2022-10-04T01:25:38.215Z,1004.93
2022-10-04T01:26:38.341Z,1004.87
2022-10-04T01:27:38.215Z,1004.83
2022-10-04T01:28:38.206Z,1004.81
2022-10-04T01:29:38.170Z,1004.79
2022-10-04T01:30:38.165Z,1004.75
2022-10-04T01:31:38.250Z,1004.66
2022-10-04T01:32:38.137Z,1004.69
2022-10-04T01:33:38.128Z,1004.66
2022-10-04T01:34:38.135Z,1004.66
2022-10-04T01:35:38.100Z,1004.68
2022-10-04T01:36:38.164Z,1004.72
2022-10-04T01:37:38.078Z,1004.72
2022-10-04T01:38:38.069Z,1004.77
2022-10-04T01:39:38.082Z,1004.75
2022-10-04T01:40:38.047Z,1004.72
2022-10-04T01:41:38.040Z,1004.68
2022-10-04T01:42:38.019Z,1004.64
2022-10-04T01:43:38.012Z,1004.66
2022-10-04T01:44:37.995Z,1004.65
2022-10-04T01:45:38.025Z,1004.69
2022-10-04T01:46:38.116Z,1004.74
2022-10-04T01:47:37.967Z,1004.75
2022-10-04T01:48:37.950Z,1004.73
2022-10-04T01:49:37.962Z,1004.77
2022-10-04T01:50:37.931Z,1004.71
2022-10-04T01:51:37.922Z,1004.71
2022-10-04T01:52:37.924Z,1004.63
2022-10-04T01:53:37.896Z,1004.62
2022-10-04T01:54:37.909Z,1004.55
2022-10-04T01:55:37.878Z,1004.55
2022-10-04T01:56:37.993Z,1004.56
2022-10-04T01:57:37.853Z,1004.57
2022-10-04T01:58:37.838Z,1004.52
2022-10-04T01:59:37.835Z,1004.58
2022-10-04T02:00:37.853Z,1004.56
2022-10-04T02:01:37.907Z,1004.59
2022-10-04T02:02:37.840Z,1004.53
2022-10-04T02:03:37.916Z,1004.56
2022-10-04T02:04:37.803Z,1004.55
2022-10-04T02:05:37.760Z,1004.55
2022-10-04T02:06:37.831Z,1004.55
2022-10-04T02:07:37.740Z,1004.61
2022-10-04T02:08:37.754Z,1004.58
2022-10-04T02:09:37.736Z,1004.61
2022-10-04T02:10:43.003Z,1004.62
2022-10-04T02:11:38.691Z,1004.57
2022-10-04T02:12:37.679Z,1004.55
2022-10-04T02:13:37.671Z,1004.50
2022-10-04T02:14:37.661Z,1004.51
2022-10-04T02:15:37.730Z,1004.47
2022-10-04T02:16:37.691Z,1004.42
2022-10-04T02:17:37.623Z,1004.42
2022-10-04T02:18:37.613Z,1004.43
2022-10-04T02:19:37.619Z,1004.36
2022-10-04T02:20:37.641Z,1004.34
2022-10-04T02:21:37.578Z,1004.33
2022-10-04T02:22:37.565Z,1004.34
2022-10-04T02:23:37.558Z,1004.34
2022-10-04T02:24:37.661Z,1004.33
2022-10-04T02:25:37.556Z,1004.33
2022-10-04T02:26:37.563Z,1004.33
2022-10-04T02:27:37.509Z,1004.28
2022-10-04T02:28:37.501Z,1004.27
2022-10-04T02:29:37.508Z,1004.23
2022-10-04T02:30:37.503Z,1004.22
2022-10-04T02:31:37.545Z,1004.20
2022-10-04T02:32:37.455Z,1004.21
2022-10-04T02:33:37.443Z,1004.24
2022-10-04T02:34:37.434Z,1004.28
2022-10-04T02:35:37.440Z,1004.29
2022-10-04T02:36:37.439Z,1004.28
2022-10-04T02:37:37.416Z,1004.26
2022-10-04T02:38:37.386Z,1004.26
2022-10-04T02:39:37.371Z,1004.26
2022-10-04T02:40:37.402Z,1004.27
2022-10-04T02:41:37.350Z,1004.27
2022-10-04T02:42:37.343Z,1004.29
2022-10-04T02:43:37.359Z,1004.31
2022-10-04T02:44:37.319Z,1004.26
2022-10-04T02:45:37.326Z,1004.26
2022-10-04T02:46:37.475Z,1004.24
2022-10-04T02:47:37.284Z,1004.23
2022-10-04T02:48:37.304Z,1004.18
2022-10-04T02:49:37.283Z,1004.13
2022-10-04T02:50:37.250Z,1004.17
2022-10-04T02:51:37.261Z,1004.16
2022-10-04T02:52:37.247Z,1004.17
2022-10-04T02:53:37.217Z,1004.19
2022-10-04T02:54:37.205Z,1004.18
2022-10-04T02:55:37.194Z,1004.17
2022-10-04T02:56:37.273Z,1004.17
2022-10-04T02:57:37.171Z,1004.18
2022-10-04T02:58:37.189Z,1004.15
2022-10-04T02:59:37.146Z,1004.13
2022-10-04T03:00:37.194Z,1004.13
2022-10-04T03:01:37.161Z,1004.13
2022-10-04T03:02:37.170Z,1004.10
2022-10-04T03:03:37.156Z,1004.06
2022-10-04T03:04:37.124Z,1004.07
2022-10-04T03:05:37.078Z,1004.02
2022-10-04T03:06:37.169Z,1004.06
2022-10-04T03:07:37.053Z,1004.06
2022-10-04T03:08:37.045Z,1004.04
2022-10-04T03:09:37.053Z,1004.02
2022-10-04T03:10:37.020Z,1004.02
2022-10-04T03:11:37.028Z,1004.05
2022-10-04T03:12:37.014Z,1004.11
2022-10-04T03:13:36.987Z,1004.08
2022-10-04T03:14:36.978Z,1004.17
2022-10-04T03:15:36.964Z,1004.17
2022-10-04T03:16:36.998Z,1004.19
2022-10-04T03:17:36.939Z,1004.17
2022-10-04T03:18:36.928Z,1004.21
2022-10-04T03:19:36.917Z,1004.17
2022-10-04T03:20:36.906Z,1004.16
2022-10-04T03:21:36.913Z,1004.16
2022-10-04T03:22:36.903Z,1004.14
2022-10-04T03:23:36.871Z,1004.09
2022-10-04T03:24:36.861Z,1004.09
2022-10-04T03:25:36.850Z,1004.03
2022-10-04T03:26:36.842Z,1004.02
2022-10-04T03:27:36.847Z,1004.03
2022-10-04T03:28:36.989Z,1004.03
2022-10-04T03:29:36.805Z,1004.05
2022-10-04T03:30:36.802Z,1004.08
2022-10-04T03:31:36.816Z,1004.09
2022-10-04T03:32:36.792Z,1004.08
2022-10-04T03:33:36.759Z,1004.08
2022-10-04T03:34:36.775Z,1004.08
2022-10-04T03:35:36.741Z,1004.06
2022-10-04T03:36:36.729Z,1004.05
2022-10-04T03:37:36.719Z,1004.06
2022-10-04T03:38:36.711Z,1004.04
2022-10-04T03:39:36.792Z,1004.03
2022-10-04T03:40:36.692Z,1004.03
2022-10-04T03:41:36.718Z,1004.04
2022-10-04T03:42:36.682Z,1003.97
2022-10-04T03:43:36.810Z,1003.98
2022-10-04T03:44:36.675Z,1004.01
2022-10-04T03:45:36.731Z,1003.99
2022-10-04T03:46:36.724Z,1004.04
2022-10-04T03:47:36.601Z,1003.99
2022-10-04T03:48:36.623Z,1004.05
2022-10-04T03:49:36.578Z,1004.03
2022-10-04T03:50:36.586Z,1004.01
2022-10-04T03:51:36.611Z,1003.98
2022-10-04T03:52:36.548Z,1004.01
2022-10-04T03:53:36.555Z,1004.02
2022-10-04T03:54:36.539Z,1003.98
2022-10-04T03:55:36.515Z,1003.93
2022-10-04T03:56:36.507Z,1003.89
2022-10-04T03:57:36.510Z,1003.82
2022-10-04T03:58:36.485Z,1003.81
2022-10-04T03:59:36.470Z,1003.78
2022-10-04T04:00:36.474Z,1003.77
2022-10-04T04:01:36.534Z,1003.77
2022-10-04T04:02:36.576Z,1003.78
2022-10-04T04:03:36.421Z,1003.80
2022-10-04T04:04:36.416Z,1003.83
2022-10-04T04:05:36.401Z,1003.84
2022-10-04T04:06:36.440Z,1003.80
2022-10-04T04:07:36.401Z,1003.82
2022-10-04T04:08:36.399Z,1003.80
2022-10-04T04:09:36.363Z,1003.82
2022-10-04T04:10:36.345Z,1003.82
2022-10-04T04:11:36.354Z,1003.84
2022-10-04T04:12:36.327Z,1003.85
2022-10-04T04:13:36.333Z,1003.88
2022-10-04T04:14:36.299Z,1003.90
2022-10-04T04:15:36.290Z,1003.91
2022-10-04T04:16:36.500Z,1003.96
2022-10-04T04:17:36.269Z,1003.96
2022-10-04T04:18:36.277Z,1003.94
2022-10-04T04:19:36.265Z,1003.93
2022-10-04T04:20:36.231Z,1003.91
2022-10-04T04:21:36.219Z,1003.97
2022-10-04T04:22:36.218Z,1003.90
2022-10-04T04:23:36.197Z,1003.91
2022-10-04T04:24:36.208Z,1003.88
2022-10-04T04:25:36.196Z,1003.88
2022-10-04T04:26:36.163Z,1003.89
2022-10-04T04:27:36.149Z,1003.87
2022-10-04T04:28:36.202Z,1003.91
2022-10-04T04:29:36.150Z,1003.89
2022-10-04T04:30:36.122Z,1003.91
2022-10-04T04:31:36.182Z,1003.88
2022-10-04T04:32:36.111Z,1003.93
2022-10-04T04:33:36.102Z,1003.90
2022-10-04T04:34:36.073Z,1003.90
2022-10-04T04:35:36.078Z,1003.88
2022-10-04T04:36:36.051Z,1003.85
2022-10-04T04:37:36.036Z,1003.83
2022-10-04T04:38:36.056Z,1003.80
2022-10-04T04:39:36.036Z,1003.76
2022-10-04T04:40:36.002Z,1003.77
2022-10-04T04:41:36.013Z,1003.75
2022-10-04T04:42:35.980Z,1003.70
2022-10-04T04:43:35.969Z,1003.70
2022-10-04T04:44:35.959Z,1003.71
2022-10-04T04:45:36.121Z,1003.73
2022-10-04T04:46:35.992Z,1003.71
2022-10-04T04:47:35.924Z,1003.67
2022-10-04T04:48:35.929Z,1003.70
2022-10-04T04:49:35.899Z,1003.68
2022-10-04T04:50:35.888Z,1003.70
2022-10-04T04:51:36.054Z,1003.68
2022-10-04T04:52:35.889Z,1003.63
2022-10-04T04:53:35.854Z,1003.68
2022-10-04T04:54:35.867Z,1003.66
2022-10-04T04:55:56.434Z,1003.65
2022-10-04T04:56:36.823Z,1003.66
2022-10-04T04:57:35.827Z,1003.66
2022-10-04T04:58:35.800Z,1003.63
2022-10-04T04:59:35.784Z,1003.61
2022-10-04T05:00:35.780Z,1003.65
2022-10-04T05:01:35.790Z,1003.61
2022-10-04T05:02:35.829Z,1003.62
2022-10-04T05:03:35.738Z,1003.56
2022-10-04T05:04:35.843Z,1003.58
2022-10-04T05:05:35.717Z,1003.58
2022-10-04T05:06:35.783Z,1003.60
2022-10-04T05:07:35.716Z,1003.58
2022-10-04T05:08:40.412Z,1003.57
2022-10-04T05:09:36.669Z,1003.57
2022-10-04T05:10:35.660Z,1003.61
2022-10-04T05:11:35.649Z,1003.59
2022-10-04T05:12:35.663Z,1003.61
2022-10-04T05:13:35.648Z,1003.59
2022-10-04T05:14:35.617Z,1003.62
2022-10-04T05:15:35.601Z,1003.59
2022-10-04T05:16:35.629Z,1003.61
2022-10-04T05:17:35.580Z,1003.61
2022-10-04T05:18:35.588Z,1003.64
2022-10-04T05:19:35.562Z,1003.64
2022-10-04T05:20:35.566Z,1003.63
2022-10-04T05:21:38.541Z,1003.63
2022-10-04T05:22:36.542Z,1003.62
2022-10-04T05:23:35.510Z,1003.64
2022-10-04T05:24:35.499Z,1003.69
2022-10-04T05:25:35.486Z,1003.65
2022-10-04T05:26:35.500Z,1003.65
2022-10-04T05:27:35.484Z,1003.66
2022-10-04T05:28:35.526Z,1003.63
2022-10-04T05:29:35.443Z,1003.61
2022-10-04T05:30:35.433Z,1003.62
2022-10-04T05:31:35.507Z,1003.66
2022-10-04T05:32:35.407Z,1003.65
2022-10-04T05:33:35.396Z,1003.59
2022-10-04T05:34:35.387Z,1003.64
2022-10-04T05:35:35.375Z,1003.58
2022-10-04T05:36:35.378Z,1003.64
2022-10-04T05:37:35.376Z,1003.62
2022-10-04T05:38:35.341Z,1003.63
2022-10-04T05:39:35.327Z,1003.65
2022-10-04T05:40:35.316Z,1003.67
2022-10-04T05:41:35.322Z,1003.65
2022-10-04T05:42:35.293Z,1003.67
2022-10-04T05:43:35.311Z,1003.69
2022-10-04T05:44:35.292Z,1003.67
2022-10-04T05:45:35.298Z,1003.68
2022-10-04T05:46:35.252Z,1003.62
2022-10-04T05:47:35.236Z,1003.66
2022-10-04T05:48:35.261Z,1003.66
2022-10-04T05:49:35.237Z,1003.69
2022-10-04T05:50:35.205Z,1003.71
2022-10-04T05:51:35.192Z,1003.74
2022-10-04T05:52:35.201Z,1003.75
2022-10-04T05:53:35.197Z,1003.75
2022-10-04T05:54:35.158Z,1003.74
2022-10-04T05:55:35.149Z,1003.79
2022-10-04T05:56:35.137Z,1003.80
2022-10-04T05:57:35.158Z,1003.80
2022-10-04T05:58:35.113Z,1003.80
2022-10-04T05:59:35.122Z,1003.82
2022-10-04T06:00:35.091Z,1003.78
2022-10-04T06:01:35.191Z,1003.77
2022-10-04T06:02:35.133Z,1003.79
2022-10-04T06:03:35.063Z,1003.81
2022-10-04T06:04:35.084Z,1003.78
2022-10-04T06:05:35.035Z,1003.83
2022-10-04T06:06:35.045Z,1003.83
2022-10-04T06:07:35.008Z,1003.80
2022-10-04T06:08:35.078Z,1003.84
2022-10-04T06:09:35.009Z,1003.82
2022-10-04T06:10:34.976Z,1003.82
2022-10-04T06:11:34.963Z,1003.83
2022-10-04T06:12:34.953Z,1003.86
2022-10-04T06:13:34.941Z,1003.85
2022-10-04T06:14:34.945Z,1003.88
2022-10-04T06:15:34.942Z,1003.90
2022-10-04T06:16:34.964Z,1003.91
2022-10-04T06:17:34.907Z,1003.97
2022-10-04T06:18:34.889Z,1004.00
2022-10-04T06:19:34.901Z,1003.98
2022-10-04T06:20:34.874Z,1004.00
2022-10-04T06:21:34.852Z,1004.03
2022-10-04T06:22:34.872Z,1004.00
2022-10-04T06:23:34.826Z,1003.96
2022-10-04T06:24:34.946Z,1004.01
2022-10-04T06:25:34.824Z,1003.99
2022-10-04T06:26:34.795Z,1004.04
2022-10-04T06:27:34.785Z,1004.05
2022-10-04T06:28:34.919Z,1003.99
2022-10-04T06:29:34.764Z,1004.05
2022-10-04T06:30:34.808Z,1004.00
2022-10-04T06:31:34.759Z,1004.02
2022-10-04T06:32:34.735Z,1003.99
2022-10-04T06:33:34.715Z,1004.04
2022-10-04T06:34:34.707Z,1004.04
2022-10-04T06:35:34.721Z,1004.03
2022-10-04T06:36:35.510Z,1003.97
2022-10-04T06:37:34.979Z,1004.03
2022-10-04T06:38:34.689Z,1004.02
2022-10-04T06:39:34.685Z,1004.02
2022-10-04T06:40:34.661Z,1003.99
2022-10-04T06:41:34.632Z,1003.98
2022-10-04T06:42:34.662Z,1003.98
2022-10-04T06:43:34.641Z,1003.93
2022-10-04T06:44:34.597Z,1003.94
2022-10-04T06:45:34.589Z,1003.95
2022-10-04T06:46:34.678Z,1003.88
2022-10-04T06:47:34.562Z,1003.91
2022-10-04T06:48:34.550Z,1003.91
2022-10-04T06:49:34.565Z,1003.95
2022-10-04T06:50:34.529Z,1003.92
2022-10-04T06:51:34.545Z,1003.93
2022-10-04T06:52:34.505Z,1003.98
2022-10-04T06:53:34.622Z,1003.96
2022-10-04T06:54:34.505Z,1003.94
2022-10-04T06:55:34.482Z,1003.95
2022-10-04T06:56:34.479Z,1003.95
2022-10-04T06:57:34.733Z,1003.95
2022-10-04T06:58:34.440Z,1003.97
2022-10-04T06:59:34.430Z,1003.94
2022-10-04T07:00:34.417Z,1003.98
2022-10-04T07:01:34.466Z,1003.97
2022-10-04T07:02:34.478Z,1003.96
2022-10-04T07:03:34.386Z,1004.00
2022-10-04T07:04:50.261Z,1004.02
2022-10-04T07:05:35.384Z,1004.02
2022-10-04T07:06:34.351Z,1003.99
2022-10-04T07:07:34.343Z,1004.02
2022-10-04T07:08:34.401Z,1004.05
2022-10-04T07:09:34.321Z,1004.03
2022-10-04T07:10:34.329Z,1004.01
2022-10-04T07:11:34.300Z,1004.03
2022-10-04T07:12:34.302Z,1004.06
2022-10-04T07:13:34.299Z,1004.07
2022-10-04T07:14:34.273Z,1004.08
2022-10-04T07:15:34.326Z,1004.06
2022-10-04T07:16:34.243Z,1004.06
2022-10-04T07:17:34.232Z,1004.02
2022-10-04T07:18:34.257Z,1004.05
2022-10-04T07:19:34.209Z,1004.09
2022-10-04T07:20:34.198Z,1004.11
2022-10-04T07:21:34.208Z,1004.12
2022-10-04T07:22:34.194Z,1004.12
2022-10-04T07:23:34.165Z,1004.14
2022-10-04T07:24:34.152Z,1004.14
2022-10-04T07:25:34.143Z,1004.15
2022-10-04T07:26:34.137Z,1004.19
2022-10-04T07:27:34.140Z,1004.17
2022-10-04T07:28:34.272Z,1004.17
2022-10-04T07:29:36.693Z,1004.12
2022-10-04T07:30:34.126Z,1004.11
2022-10-04T07:31:34.101Z,1004.09
2022-10-04T07:32:34.063Z,1004.09
2022-10-04T07:33:34.053Z,1004.08
2022-10-04T07:34:34.060Z,1004.05
2022-10-04T07:35:34.035Z,1004.06
2022-10-04T07:36:34.017Z,1004.06
2022-10-04T07:37:34.010Z,1004.06
2022-10-04T07:38:33.995Z,1004.06
2022-10-04T07:39:34.007Z,1004.01
2022-10-04T07:40:33.977Z,1003.98
2022-10-04T07:41:33.964Z,1003.98
2022-10-04T07:42:33.951Z,1004.00
2022-10-04T07:43:33.943Z,1004.02
2022-10-04T07:44:33.966Z,1003.96
2022-10-04T07:45:33.918Z,1003.98
2022-10-04T07:46:33.920Z,1004.03
2022-10-04T07:47:33.926Z,1004.03
2022-10-04T07:48:33.884Z,1003.99
2022-10-04T07:49:33.896Z,1004.00
2022-10-04T07:50:33.865Z,1003.98
2022-10-04T07:51:33.858Z,1003.92
2022-10-04T07:52:33.859Z,1003.91
2022-10-04T07:53:33.831Z,1003.84
2022-10-04T07:54:33.817Z,1003.91
2022-10-04T07:55:33.833Z,1003.87
2022-10-04T07:56:33.798Z,1003.85
2022-10-04T07:57:33.787Z,1003.88
2022-10-04T07:58:33.795Z,1003.95
2022-10-04T07:59:33.762Z,1003.91
2022-10-04T08:00:33.851Z,1003.90
2022-10-04T08:01:33.799Z,1003.88
2022-10-04T08:02:33.911Z,1003.86
2022-10-04T08:03:33.793Z,1003.87
2022-10-04T08:04:33.707Z,1003.91
2022-10-04T08:05:33.696Z,1003.85
2022-10-04T08:06:33.682Z,1003.83
2022-10-04T08:07:33.674Z,1003.81
2022-10-04T08:08:33.969Z,1003.81
2022-10-04T08:09:33.671Z,1003.79
2022-10-04T08:10:33.641Z,1003.77
2022-10-04T08:11:33.628Z,1003.75
2022-10-04T08:12:33.616Z,1003.75
2022-10-04T08:13:33.631Z,1003.77
2022-10-04T08:14:33.593Z,1003.76
2022-10-04T08:15:33.650Z,1003.78
2022-10-04T08:16:33.593Z,1003.80
2022-10-04T08:17:33.561Z,1003.82
2022-10-04T08:18:33.549Z,1003.81
2022-10-04T08:19:33.542Z,1003.80
2022-10-04T08:20:33.551Z,1003.80
2022-10-04T08:21:33.518Z,1003.87
2022-10-04T08:22:33.528Z,1003.83
2022-10-04T08:23:33.510Z,1003.80
2022-10-04T08:24:33.505Z,1003.75
2022-10-04T08:25:33.474Z,1003.72
2022-10-04T08:26:33.466Z,1003.77
2022-10-04T08:27:33.451Z,1003.77
2022-10-04T08:28:33.485Z,1003.77
2022-10-04T08:29:33.428Z,1003.82
2022-10-04T08:30:33.436Z,1003.78
2022-10-04T08:31:33.477Z,1003.70
2022-10-04T08:32:33.448Z,1003.72
2022-10-04T08:33:33.382Z,1003.76
2022-10-04T08:34:33.374Z,1003.74
2022-10-04T08:35:33.368Z,1003.72
2022-10-04T08:36:33.373Z,1003.76
2022-10-04T08:37:33.343Z,1003.73
2022-10-04T08:38:33.327Z,1003.77
2022-10-04T08:39:35.323Z,1003.79
2022-10-04T08:40:33.327Z,1003.80
2022-10-04T08:41:33.294Z,1003.77
2022-10-04T08:42:33.309Z,1003.76
2022-10-04T08:43:33.271Z,1003.76
2022-10-04T08:44:33.267Z,1003.79
2022-10-04T08:45:33.273Z,1003.78
2022-10-04T08:46:33.299Z,1003.71
2022-10-04T08:47:33.226Z,1003.75
2022-10-04T08:48:33.252Z,1003.71
2022-10-04T08:49:33.204Z,1003.75
2022-10-04T08:50:33.217Z,1003.76
2022-10-04T08:51:33.183Z,1003.77
2022-10-04T08:52:33.168Z,1003.76
2022-10-04T08:53:33.162Z,1003.72
2022-10-04T08:54:33.170Z,1003.72
2022-10-04T08:55:33.171Z,1003.74
2022-10-04T08:56:33.131Z,1003.72
2022-10-04T08:57:33.118Z,1003.77
2022-10-04T08:58:33.110Z,1003.78
2022-10-04T08:59:33.113Z,1003.74
2022-10-04T09:00:33.082Z,1003.73
2022-10-04T09:01:33.169Z,1003.79
2022-10-04T09:02:33.199Z,1003.75
2022-10-04T09:03:33.048Z,1003.77
2022-10-04T09:04:33.118Z,1003.74
2022-10-04T09:05:33.048Z,1003.74
2022-10-04T09:06:33.013Z,1003.69
2022-10-04T09:07:33.006Z,1003.71
2022-10-04T09:08:33.014Z,1003.71
2022-10-04T09:09:33.003Z,1003.73
2022-10-04T09:10:32.971Z,1003.74
2022-10-04T09:11:32.960Z,1003.70
2022-10-04T09:12:32.971Z,1003.74
2022-10-04T09:13:32.938Z,1003.73
2022-10-04T09:14:32.925Z,1003.73
2022-10-04T09:15:32.991Z,1003.69
2022-10-04T09:16:32.924Z,1003.68
2022-10-04T09:17:33.064Z,1003.66
2022-10-04T09:18:32.880Z,1003.66
2022-10-04T09:19:32.900Z,1003.68
2022-10-04T09:20:38.777Z,1003.71
2022-10-04T09:21:33.849Z,1003.69
2022-10-04T09:22:33.086Z,1003.67
2022-10-04T09:23:32.830Z,1003.68
2022-10-04T09:24:32.818Z,1003.66
2022-10-04T09:25:32.807Z,1003.67
2022-10-04T09:26:32.792Z,1003.66
2022-10-04T09:27:54.326Z,1003.66
2022-10-04T09:28:33.850Z,1003.66
2022-10-04T09:29:32.761Z,1003.66
2022-10-04T09:30:32.750Z,1003.69
2022-10-04T09:31:32.827Z,1003.68
2022-10-04T09:32:32.746Z,1003.71
2022-10-04T09:33:32.726Z,1003.71
2022-10-04T09:34:37.061Z,1003.73
2022-10-04T09:35:32.692Z,1003.70
2022-10-04T09:36:32.700Z,1003.67
2022-10-04T09:37:32.672Z,1003.73
2022-10-04T09:38:32.659Z,1003.68
2022-10-04T09:39:32.648Z,1003.70
2022-10-04T09:40:32.660Z,1003.70
2022-10-04T09:41:32.627Z,1003.73
2022-10-04T09:42:32.612Z,1003.73
2022-10-04T09:43:32.604Z,1003.75
2022-10-04T09:44:32.591Z,1003.74
2022-10-04T09:45:32.601Z,1003.75
2022-10-04T09:46:32.624Z,1003.69
2022-10-04T09:47:32.558Z,1003.70
2022-10-04T09:48:32.545Z,1003.68
2022-10-04T09:49:32.539Z,1003.57
2022-10-04T09:50:32.548Z,1003.60
2022-10-04T09:51:32.513Z,1003.57
2022-10-04T09:52:32.538Z,1003.62
2022-10-04T09:53:32.496Z,1003.57
2022-10-04T09:54:32.504Z,1003.58
2022-10-04T09:55:32.470Z,1003.57
2022-10-04T09:56:32.478Z,1003.53
2022-10-04T09:57:32.449Z,1003.55
2022-10-04T09:58:32.435Z,1003.53
2022-10-04T09:59:32.423Z,1003.54
2022-10-04T10:00:32.436Z,1003.56
2022-10-04T10:01:32.444Z,1003.51
2022-10-04T10:02:32.491Z,1003.50
2022-10-04T10:03:32.404Z,1003.50
2022-10-04T10:04:32.367Z,1003.53
2022-10-04T10:05:32.358Z,1003.48
2022-10-04T10:06:32.345Z,1003.54
2022-10-04T10:07:32.358Z,1003.50
2022-10-04T10:08:32.346Z,1003.50
2022-10-04T10:09:32.313Z,1003.53
2022-10-04T10:10:32.303Z,1003.49
2022-10-04T10:11:32.291Z,1003.53
2022-10-04T10:12:32.301Z,1003.49
2022-10-04T10:13:32.309Z,1003.49
2022-10-04T10:14:32.257Z,1003.52
2022-10-04T10:15:32.249Z,1003.49
2022-10-04T10:16:32.236Z,1003.49
2022-10-04T10:17:32.249Z,1003.53
2022-10-04T10:18:32.232Z,1003.46
2022-10-04T10:19:32.204Z,1003.49
2022-10-04T10:20:32.189Z,1003.49
2022-10-04T10:21:32.185Z,1003.47
2022-10-04T10:22:32.168Z,1003.46
2022-10-04T10:23:32.188Z,1003.43
2022-10-04T10:24:32.161Z,1003.45
2022-10-04T10:25:32.137Z,1003.49
2022-10-04T10:26:32.139Z,1003.47
2022-10-04T10:27:32.114Z,1003.47
2022-10-04T10:28:32.199Z,1003.51
2022-10-04T10:29:32.095Z,1003.48
2022-10-04T10:30:32.079Z,1003.50
2022-10-04T10:31:32.182Z,1003.53
2022-10-04T10:32:32.059Z,1003.51
2022-10-04T10:33:32.070Z,1003.47
2022-10-04T10:34:32.036Z,1003.47
2022-10-04T10:35:32.056Z,1003.41
2022-10-04T10:36:32.014Z,1003.46
2022-10-04T10:37:32.006Z,1003.42
2022-10-04T10:38:32.012Z,1003.46
2022-10-04T10:39:31.984Z,1003.45
2022-10-04T10:40:31.984Z,1003.43
2022-10-04T10:41:31.982Z,1003.39
2022-10-04T10:42:31.947Z,1003.43
2022-10-04T10:43:31.936Z,1003.48
2022-10-04T10:44:31.925Z,1003.42
2022-10-04T10:45:31.937Z,1003.46
2022-10-04T10:46:31.975Z,1003.44
2022-10-04T10:47:31.913Z,1003.40
2022-10-04T10:48:31.880Z,1003.47
2022-10-04T10:49:31.872Z,1003.40
2022-10-04T10:50:31.857Z,1003.46
2022-10-04T10:51:31.870Z,1003.46
2022-10-04T10:52:31.841Z,1003.42
2022-10-04T10:53:31.851Z,1003.37
2022-10-04T10:54:31.825Z,1003.41
2022-10-04T10:55:31.804Z,1003.34
2022-10-04T10:56:31.809Z,1003.32
2022-10-04T10:57:31.788Z,1003.32
2022-10-04T10:58:31.801Z,1003.29
2022-10-04T10:59:31.765Z,1003.29
2022-10-04T11:00:31.751Z,1003.28
2022-10-04T11:01:31.857Z,1003.28
2022-10-04T11:02:48.142Z,1003.26
2022-10-04T11:03:32.940Z,1003.26
2022-10-04T11:04:31.728Z,1003.26
2022-10-04T11:05:31.696Z,1003.23
2022-10-04T11:06:31.686Z,1003.24
2022-10-04T11:07:31.693Z,1003.25
2022-10-04T11:08:31.685Z,1003.21
2022-10-04T11:09:31.648Z,1003.26
2022-10-04T11:10:31.662Z,1003.25
2022-10-04T11:11:31.630Z,1003.22
2022-10-04T11:12:31.636Z,1003.20
2022-10-04T11:13:31.616Z,1003.21
2022-10-04T11:14:31.606Z,1003.17
2022-10-04T11:15:31.582Z,1003.15
2022-10-04T11:16:31.677Z,1003.16
2022-10-04T11:17:31.586Z,1003.10
2022-10-04T11:18:31.574Z,1003.15
2022-10-04T11:19:31.542Z,1003.11
2022-10-04T11:20:31.533Z,1003.06
2022-10-04T11:21:31.537Z,1003.07
2022-10-04T11:22:36.031Z,1003.05
2022-10-04T11:23:32.493Z,1003.01
2022-10-04T11:24:31.505Z,1003.03
2022-10-04T11:25:31.473Z,1003.01
2022-10-04T11:26:31.485Z,1003.01
2022-10-04T11:27:31.451Z,1002.97
2022-10-04T11:28:31.561Z,1003.01
2022-10-04T11:29:31.436Z,1002.96
2022-10-04T11:30:31.418Z,1002.89
2022-10-04T11:31:31.466Z,1002.94
2022-10-04T11:32:31.401Z,1002.94
2022-10-04T11:33:31.441Z,1002.89
2022-10-04T11:34:31.376Z,1002.92
2022-10-04T11:35:31.363Z,1002.89
2022-10-04T11:36:31.353Z,1002.91
2022-10-04T11:37:31.340Z,1002.89
2022-10-04T11:38:31.352Z,1002.85
2022-10-04T11:39:31.318Z,1002.80
2022-10-04T11:40:31.587Z,1002.81
2022-10-04T11:41:31.297Z,1002.79
2022-10-04T11:42:31.290Z,1002.78
2022-10-04T11:43:31.293Z,1002.75
2022-10-04T11:44:31.281Z,1002.72
2022-10-04T11:45:31.254Z,1002.71
2022-10-04T11:46:31.268Z,1002.73
2022-10-04T11:47:31.230Z,1002.71
2022-10-04T11:48:31.241Z,1002.67
2022-10-04T11:49:31.210Z,1002.63
2022-10-04T11:50:31.204Z,1002.63
2022-10-04T11:51:31.188Z,1002.62
2022-10-04T11:52:31.176Z,1002.56
2022-10-04T11:53:31.186Z,1002.55
2022-10-04T11:54:31.156Z,1002.55
2022-10-04T11:55:31.141Z,1002.51
2022-10-04T11:56:31.166Z,1002.52
2022-10-04T11:57:31.141Z,1002.48
2022-10-04T11:58:31.112Z,1002.48
2022-10-04T11:59:31.098Z,1002.45
2022-10-04T12:00:31.117Z,1002.51
2022-10-04T12:01:31.074Z,1002.48
2022-10-04T12:02:31.087Z,1002.50
2022-10-04T12:03:31.155Z,1002.51
2022-10-04T12:04:31.126Z,1002.51
2022-10-04T12:05:31.029Z,1002.48